Latest Weather Observations for Mount Keith

IDW60801

Issued at 5:43 pm WST Sunday 19 August 2018 (issued every 10 minutes, with the page automatically refreshed every 10 minutes)

About weather observations | Map of weather stations | Latest weather observations for WA | Other Formats
Station Details ID: 512019 Name: MOUNT KEITH Lat: -27.29 Lon: 120.55 Height: 542.33 m
Data from the previous 72 hours. | See also: Recent months for locations in Western Australia
Date/Time
WST
Temp
°C
App
Temp
°C
Dew
Point
°C
Rel
Hum
%
Delta-T
°C
Wind Press
QNH
hPa
Press
MSL
hPa
Rain since
9am
mm
Dir  Spd
km/h
Gust
km/h
Spd
kts
Gust
kts
19/05:30pm 23.3 20.0 -1.6 19 11.2 SSE 6 11 3 6 1023.5 1022.7 0.0
19/05:00pm 24.0 19.7 -1.8 18 11.7 SE 11 13 6 7 1023.3 1022.5 0.0
19/04:30pm 24.5 21.0 -1.3 18 11.9 SSE 7 11 4 6 1023.1 1022.2 0.0
19/04:00pm 24.8 20.6 -1.1 18 11.9 SSE 11 15 6 8 1022.8 1022.0 0.0
19/03:30pm 24.6 21.3 -1.3 18 11.9 E 6 13 3 7 1023.0 1022.1 0.0
19/03:00pm 24.7 20.9 -0.4 19 11.7 NE 9 20 5 11 1023.2 1022.4 0.0
19/02:30pm 23.9 19.0 -0.4 20 11.3 NE 15 22 8 12 1023.4 1022.6 0.0
19/02:00pm 24.2 19.7 -0.2 20 11.4 ENE 13 20 7 11 1023.7 1022.9 0.0
19/01:30pm 23.1 17.9 0.2 22 10.7 NE 17 26 9 14 1023.9 1023.1 0.0
19/01:00pm 22.6 17.8 0.4 23 10.3 NE 15 22 8 12 1024.2 1023.4 0.0
19/12:30pm 22.0 16.9 0.5 24 10.0 NE 17 26 9 14 1025.0 1024.2 0.0
19/12:00pm 20.9 15.7 0.2 25 9.5 NE 17 24 9 13 1025.4 1024.6 0.0
19/11:30am 20.0 14.2 -0.1 26 9.1 ENE 20 26 11 14 1025.9 1025.1 0.0
19/11:00am 19.0 13.2 0.1 28 8.5 NE 20 28 11 15 1026.5 1025.8 0.0
19/10:30am 18.1 12.3 -0.2 29 8.2 NE 20 32 11 17 1027.2 1026.4 0.0
19/10:00am 17.2 11.0 -0.1 31 7.6 ENE 22 32 12 17 1027.4 1026.6 0.0
19/09:30am 15.9 9.3 -0.3 33 7.1 ENE 24 32 13 17 1027.4 1026.6 0.0
19/09:00am 14.2 7.2 -0.3 37 6.2 ENE 26 33 14 18 1027.6 1026.8 0.0
19/08:30am 13.3 6.4 0.0 40 5.7 ENE 26 35 14 19 1027.7 1026.9 0.0
19/08:00am 11.4 5.7 0.5 47 4.6 ENE 20 30 11 16 1027.7 1026.9 0.0
19/07:30am 10.0 5.3 0.9 53 3.9 ENE 15 22 8 12 1027.6 1026.8 0.0
19/07:00am 7.9 4.4 1.1 62 2.8 ENE 9 11 5 6 1027.2 1026.4 0.0
19/06:30am 6.3 2.3 0.6 67 2.3 E 11 11 6 6 1026.9 1026.1 0.0
19/06:00am 6.8 3.2 0.7 65 2.5 E 9 11 5 6 1026.4 1025.7 0.0
19/05:30am 7.5 3.9 0.9 63 2.7 ENE 9 13 5 7 1026.0 1025.2 0.0
19/05:00am 8.0 4.1 1.0 61 2.9 E 11 13 6 7 1025.6 1024.8 0.0
19/04:30am 8.5 4.6 1.2 60 3.1 E 11 13 6 7 1025.3 1024.5 0.0
19/04:00am 9.1 4.8 1.3 58 3.3 E 13 17 7 9 1025.3 1024.5 0.0
19/03:30am 9.8 5.5 1.2 55 3.7 E 13 17 7 9 1025.3 1024.5 0.0
19/03:00am 10.4 5.8 1.5 54 3.8 E 15 20 8 11 1025.3 1024.5 0.0
19/02:30am 10.8 6.2 1.6 53 4.0 E 15 20 8 11 1025.4 1024.6 0.0
19/02:00am 11.4 6.4 1.6 51 4.3 E 17 24 9 13 1025.5 1024.7 0.0
19/01:30am 12.0 6.7 1.6 49 4.6 E 19 26 10 14 1025.4 1024.6 0.0
19/01:00am 12.6 7.3 1.9 48 4.7 E 19 24 10 13 1025.5 1024.7 0.0
19/12:30am 13.0 7.7 1.7 46 5.0 E 19 24 10 13 1025.5 1024.7 0.0
19/12:00am 13.5 8.2 1.8 45 5.2 E 19 28 10 15 1025.7 1024.9 0.0
 
Date/Time
WST
Temp
°C
App
Temp
°C
Dew
Point
°C
Rel
Hum
%
Delta-T
°C
Wind Press
QNH
hPa
Press
MSL
hPa
Rain since
9am
mm
Dir  Spd
km/h
Gust
km/h
Spd
kts
Gust
kts
18/11:30pm 13.7 8.3 1.4 43 5.5 E 19 26 10 14 1025.8 1025.0 0.0
18/11:00pm 13.8 8.8 1.1 42 5.6 E 17 26 9 14 1025.8 1025.0 0.0
18/10:30pm 13.6 8.5 0.9 42 5.6 ESE 17 22 9 12 1025.9 1025.1 0.0
18/10:00pm 13.7 8.9 0.4 40 5.7 ESE 15 19 8 10 1025.9 1025.1 0.0
18/09:30pm 14.0 9.2 0.3 39 6.0 ESE 15 19 8 10 1025.9 1025.1 0.0
18/09:00pm 14.6 9.8 0.5 38 6.2 ESE 15 20 8 11 1025.7 1024.9 0.0
18/08:30pm 15.0 10.7 0.8 38 6.3 ESE 13 19 7 10 1025.4 1024.6 0.0
18/08:00pm 15.5 11.2 1.3 38 6.4 SE 13 17 7 9 1025.3 1024.5 0.0
18/07:30pm 16.1 11.9 1.8 38 6.5 ESE 13 15 7 8 1025.0 1024.2 0.0
18/07:00pm 16.7 12.9 2.0 37 6.7 SE 11 15 6 8 1024.6 1023.8 0.0
18/06:30pm 17.1 13.3 1.9 36 7.0 ESE 11 13 6 7 1024.1 1023.3 0.0
18/06:00pm 18.5 14.7 1.9 33 7.7 E 11 15 6 8 1023.8 1023.0 0.0
18/05:30pm 19.7 15.6 2.1 31 8.3 E 13 20 7 11 1023.5 1022.7 0.0
18/05:00pm 20.6 16.1 2.4 30 8.7 E 15 26 8 14 1023.1 1022.2 0.0
18/04:30pm 21.0 16.6 2.8 30 8.8 ESE 15 20 8 11 1023.0 1022.1 0.0
18/04:00pm 21.3 16.9 2.6 29 9.0 E 15 22 8 12 1022.7 1021.9 0.0
18/03:30pm 20.9 16.5 2.7 30 8.8 E 15 26 8 14 1022.6 1021.8 0.0
18/03:00pm 21.2 16.0 2.5 29 9.0 E 19 32 10 17 1022.6 1021.8 0.0
18/02:30pm 20.9 16.0 2.2 29 8.9 ENE 17 26 9 14 1022.6 1021.8 0.0
18/02:00pm 21.1 16.0 2.9 30 8.8 ENE 19 30 10 16 1022.7 1021.9 0.0
18/01:30pm 20.4 15.2 2.7 31 8.5 E 19 26 10 14 1023.1 1022.2 0.0
18/01:00pm 20.1 14.9 3.3 33 8.1 ENE 20 32 11 17 1023.4 1022.6 0.0
18/12:30pm 19.8 14.5 3.1 33 8.1 ENE 20 32 11 17 1023.9 1023.1 0.0
18/12:00pm 18.6 13.4 3.3 36 7.3 E 20 35 11 19 1024.5 1023.7 0.0
18/11:30am 18.0 12.4 3.5 38 7.0 ENE 22 33 12 18 1025.1 1024.3 0.0
18/11:00am 17.3 11.7 3.6 40 6.5 E 22 35 12 19 1025.4 1024.6 0.0
18/10:30am 16.4 10.7 3.1 41 6.3 E 22 32 12 17 1025.8 1025.0 0.0
18/10:00am 15.3 9.3 3.1 44 5.7 E 24 33 13 18 1025.9 1025.1 0.0
18/09:30am 14.7 8.2 2.9 45 5.5 E 26 37 14 20 1025.9 1025.1 0.0
18/09:00am 13.9 7.5 3.1 48 5.0 E 26 33 14 18 1025.8 1025.0 0.0
18/08:30am 13.0 6.6 3.1 51 4.5 E 26 33 14 18 1025.7 1024.9 0.0
18/08:00am 11.5 5.8 2.8 55 3.9 ESE 22 35 12 19 1025.6 1024.8 0.0
18/07:30am 10.4 5.6 2.5 58 3.5 ESE 17 24 9 13 1025.3 1024.5 0.0
18/07:00am 9.2 5.1 2.3 62 3.0 ESE 13 19 7 10 1025.0 1024.2 0.0
18/06:30am 8.2 4.1 2.2 66 2.6 SE 13 15 7 8 1024.5 1023.7 0.0
18/06:00am 8.0 4.2 2.0 66 2.5 ESE 11 15 6 8 1023.9 1023.1 0.0
18/05:30am 8.6 4.5 2.2 64 2.8 ESE 13 15 7 8 1023.5 1022.7 0.0
18/05:00am 8.8 5.1 2.2 63 2.8 ESE 11 13 6 7 1023.2 1022.4 0.0
18/04:30am 9.2 5.5 2.3 62 3.0 SE 11 15 6 8 1022.7 1021.9 0.0
18/04:00am 9.1 5.3 2.0 61 3.1 ESE 11 13 6 7 1022.5 1021.7 0.0
18/03:30am 9.7 5.5 1.8 58 3.4 ESE 13 15 7 8 1022.4 1021.6 0.0
18/03:00am 10.5 5.9 1.6 54 3.8 SE 15 19 8 10 1022.4 1021.6 0.0
18/02:30am 10.9 6.7 1.4 52 4.1 SE 13 19 7 10 1022.4 1021.6 0.0
18/02:00am 11.2 6.5 0.9 49 4.4 SE 15 19 8 10 1022.1 1021.3 0.0
18/01:30am 11.7 5.9 0.2 45 4.9 SE 20 26 11 14 1022.0 1021.2 0.0
18/01:00am 12.1 7.3 -0.1 43 5.1 SSE 15 24 8 13 1022.0 1021.2 0.0
18/12:30am 12.6 7.8 0.0 42 5.4 SE 15 17 8 9 1021.8 1021.0 0.0
18/12:00am 12.7 8.2 -0.2 41 5.5 SSE 13 19 7 10 1021.9 1021.1 0.0
 
Date/Time
WST
Temp
°C
App
Temp
°C
Dew
Point
°C
Rel
Hum
%
Delta-T
°C
Wind Press
QNH
hPa
Press
MSL
hPa
Rain since
9am
mm
Dir  Spd
km/h
Gust
km/h
Spd
kts
Gust
kts
17/11:30pm 12.4 7.8 -0.8 40 5.5 SSE 13 17 7 9 1022.0 1021.2 0.0
17/11:00pm 12.9 8.3 -1.1 38 5.8 SSE 13 17 7 9 1022.1 1021.3 0.0
17/10:30pm 13.4 8.4 -1.0 37 6.0 SSE 15 19 8 10 1022.1 1021.3 0.0
17/10:00pm 13.9 8.6 -0.9 36 6.2 SSE 17 19 9 10 1022.4 1021.6 0.0
17/09:30pm 14.3 9.3 -0.9 35 6.5 SSE 15 20 8 11 1022.4 1021.6 0.0
17/09:00pm 14.9 10.0 -0.4 35 6.6 SSE 15 19 8 10 1022.3 1021.5 0.0
17/08:30pm 14.7 10.3 0.2 37 6.3 SSE 13 17 7 9 1022.1 1021.3 0.0
17/08:00pm 15.3 11.0 0.7 37 6.5 S 13 15 7 8 1021.9 1021.1 0.0
17/07:30pm 15.9 12.0 0.9 36 6.7 S 11 13 6 7 1021.6 1020.8 0.0
17/07:00pm 17.0 12.7 1.0 34 7.2 S 13 15 7 8 1021.2 1020.3 0.0
17/06:30pm 17.7 13.4 0.8 32 7.7 SSW 13 15 7 8 1020.7 1019.9 0.0
17/06:00pm 18.8 14.9 0.9 30 8.2 SSW 11 17 6 9 1020.2 1019.4 0.0
17/05:30pm 19.8 14.8 1.3 29 8.6 SSW 17 20 9 11 1019.8 1018.9 0.0
17/05:00pm 20.6 16.0 1.5 28 9.0 SSW 15 20 8 11 1019.4 1018.5 0.0
17/04:30pm 21.1 16.5 1.4 27 9.3 S 15 22 8 12 1019.1 1018.2 0.0
17/04:00pm 21.1 16.5 1.4 27 9.3 SW 15 22 8 12 1018.7 1017.9 0.0
17/03:30pm 21.2 17.0 1.5 27 9.3 S 13 19 7 10 1018.6 1017.8 0.0
17/03:00pm 21.1 16.6 1.9 28 9.1 SW 15 24 8 13 1018.6 1017.8 0.0
17/02:30pm 20.9 16.3 1.7 28 9.1 S 15 26 8 14 1018.5 1017.7 0.0
17/02:00pm 20.6 16.5 2.0 29 8.8 SE 13 24 7 13 1018.7 1017.9 0.0
17/01:30pm 20.6 17.8 2.0 29 8.8 ESE 6 13 3 7 1018.8 1018.0 0.0
17/01:00pm 19.9 16.5 1.8 30 8.5 SE 9 13 5 7 1019.3 1018.4 0.0
17/12:30pm 19.4 15.5 1.4 30 8.4 ESE 11 17 6 9 1019.7 1018.8 0.0
17/12:00pm 18.2 13.9 0.8 31 7.9 SE 13 19 7 10 1020.1 1019.3 0.0
17/11:30am 18.0 13.0 1.1 32 7.7 SE 17 22 9 12 1020.6 1019.8 0.0
17/11:00am 17.7 12.8 1.7 34 7.4 SE 17 26 9 14 1021.1 1020.2 0.0
17/10:30am 16.5 11.6 1.8 37 6.7 SE 17 26 9 14 1021.4 1020.5 0.0
17/10:00am 15.5 10.0 2.0 40 6.1 SE 20 26 11 14 1021.6 1020.8 0.0
17/09:30am 14.7 8.5 2.3 43 5.7 SE 24 32 13 17 1021.5 1020.6 0.0
17/09:00am 13.6 7.4 2.2 46 5.1 SE 24 33 13 18 1021.5 1020.6 0.0
17/08:30am 12.7 6.5 2.3 49 4.7 SSE 24 30 13 16 1021.3 1020.4 0.0
17/08:00am 11.9 6.6 2.9 54 4.1 SSE 20 28 11 15 1021.0 1020.1 0.0
17/07:30am 10.3 4.8 1.9 56 3.7 SSE 20 26 11 14 1020.5 1019.7 0.0
17/07:00am 9.0 4.7 1.2 58 3.3 S 13 17 7 9 1020.3 1019.5 0.0
17/06:30am 8.6 4.2 0.6 57 3.3 S 13 17 7 9 1019.8 1018.9 0.0
17/06:00am 8.9 4.5 0.6 56 3.5 S 13 17 7 9 1019.3 1018.4 0.0
17/05:30am 8.8 4.3 -0.2 53 3.7 S 13 15 7 8 1019.0 1018.1 0.0
17/05:00am 9.5 5.0 -0.4 50 4.0 S 13 17 7 9 1018.7 1017.9 0.0
17/04:30am 9.6 5.0 -0.9 48 4.3 S 13 17 7 9 1018.3 1017.5 0.0
17/04:00am 9.5 5.7 -0.9 48 4.2 SSW 9 13 5 7 1018.1 1017.2 0.0
17/03:30am 9.7 5.9 -0.8 48 4.3 S 9 9 5 5 1018.1 1017.2 0.0
17/03:00am 9.8 6.5 -1.0 47 4.4 SSE 6 9 3 5 1018.0 1017.1 0.0
17/02:30am 10.6 6.8 -0.8 45 4.7 S 9 13 5 7 1017.9 1017.0 0.0
17/02:00am 11.3 7.1 -0.8 43 5.0 S 11 15 6 8 1018.1 1017.2 0.0
17/01:30am 11.8 7.2 -0.7 42 5.2 S 13 17 7 9 1018.1 1017.2 0.0
17/01:00am 11.4 7.4 0.8 48 4.5 SSW 11 13 6 7 1018.4 1017.6 0.0
17/12:30am 11.1 8.9 1.1 50 4.3 S 2 7 1 4 1018.5 1017.7 0.0
17/12:00am 11.3 8.3 1.0 49 4.4 SSE 6 7 3 4 1018.3 1017.5 0.0
 
Date/Time
WST
Temp
°C
App
Temp
°C
Dew
Point
°C
Rel
Hum
%
Delta-T
°C
Wind Press
QNH
hPa
Press
MSL
hPa
Rain since
9am
mm
Dir  Spd
km/h
Gust
km/h
Spd
kts
Gust
kts
16/11:30pm 12.3 8.9 1.6 48 4.7 S 9 11 5 6 1018.4 1017.6 0.0
16/11:00pm 13.3 9.9 1.6 45 5.2 S 9 13 5 7 1018.6 1017.8 0.0
16/10:30pm 14.1 9.9 1.4 42 5.7 S 13 15 7 8 1018.7 1017.9 0.0
16/10:00pm 14.4 10.6 2.0 43 5.6 S 11 13 6 7 1018.8 1018.0 0.0
16/09:30pm 15.2 11.8 2.1 41 6.0 S 9 13 5 7 1018.8 1018.0 0.0
16/09:00pm 15.6 12.3 2.4 41 6.1 SSE 9 13 5 7 1018.6 1017.8 0.0
16/08:30pm 16.0 12.0 2.8 41 6.2 S 13 19 7 10 1018.5 1017.7 0.0
16/08:00pm 16.2 13.0 3.3 42 6.1 SSE 9 13 5 7 1018.5 1017.7 0.0
16/07:30pm 17.2 12.9 3.5 40 6.5 SSW 15 20 8 11 1018.2 1017.3 0.0
16/07:00pm 17.4 14.0 4.0 41 6.5 S 11 15 6 8 1018.0 1017.1 0.0
16/06:30pm 18.5 15.2 4.3 39 7.0 S 11 13 6 7 1017.7 1016.8 0.0
16/06:00pm 19.7 16.3 3.8 35 7.8 SSW 11 15 6 8 1017.5 1016.6 0.0

Other Formats:

Comma delimited format used in spreadsheet applications
http://www.bom.gov.au/fwo/IDW60801/IDW60801.99434.axf

JavaScript Object Notation format (JSON) in row-major order
http://www.bom.gov.au/fwo/IDW60801/IDW60801.99434.json